Quiberon — FNQY — position and weather

sailwx.info

Track history (hours):
 
Tides and Currents Weather Stations Pressure Air Temp Water Temp Dewpoint Dewpoint Depression Visibility Wind Speed Wind Dir Waves Ship Positions

Quiberon

Operator: Brittany Ferries

Last reported at 2017-Jun-26 07:59 UTC. Time now 2017-Jun-27 22:37 UTC.
Position N 44°57' W 000°33'.

Length 25 m; draft 4.8 m.

Type: Tug. MMSI: 228296800.

Date/timePositionNaut miles runAvg speedWind from/ knotsBaromVisibWave heightAir tempDewpointWater temp
2017-Jun-26 07:59N 44°57' W 000°33'4 8.1
2017-Jun-26 07:30N 45°00' W 000°34'0 0.0
2017-Jun-26 07:00N 45°00' W 000°34'1 2.5
2017-Jun-26 06:30N 45°01' W 000°35'8 1.4
2017-Jun-26 00:34N 44°53' W 000°32'0 0.0
2017-Jun-26 00:22N 44°53' W 000°32'0 0.0
2017-Jun-25 23:55N 44°53' W 000°32'  
2017-Jun-22 08:24N 44°53' W 000°32'0 0.0
2017-Jun-22 08:00N 44°53' W 000°32'0 0.0
2017-Jun-22 07:30N 44°53' W 000°32'0 0.0
2017-Jun-22 06:59N 44°53' W 000°32'0 0.0
2017-Jun-22 06:29N 44°53' W 000°32'0 0.0
2017-Jun-22 06:00N 44°53' W 000°32'0 0.0
2017-Jun-22 05:24N 44°53' W 000°32'0 0.0
2017-Jun-22 05:00N 44°53' W 000°32'0 0.0
2017-Jun-22 04:30N 44°53' W 000°32'0 0.0
2017-Jun-22 04:00N 44°53' W 000°32'0 0.0
2017-Jun-22 03:30N 44°53' W 000°32'0 0.0
2017-Jun-22 03:00N 44°53' W 000°32'0 0.0
2017-Jun-22 02:30N 44°53' W 000°32'0 0.0
2017-Jun-22 02:01N 44°53' W 000°32'0 0.0
2017-Jun-22 01:30N 44°53' W 000°32'0 0.0
2017-Jun-22 00:59N 44°53' W 000°32'0 0.0
2017-Jun-22 00:30N 44°53' W 000°32'0 0.0
2017-Jun-22 00:00N 44°53' W 000°32'0 0.0
2017-Jun-21 23:30N 44°53' W 000°32'0 0.0
2017-Jun-21 23:00N 44°53' W 000°32'0 0.0
2017-Jun-21 22:30N 44°53' W 000°32'0 0.0
2017-Jun-21 22:00N 44°53' W 000°32'0 0.0
2017-Jun-21 21:30N 44°53' W 000°32'0 0.0
2017-Jun-21 07:35N 44°53' W 000°32'0 0.0
2017-Jun-21 07:29N 44°53' W 000°32'0 0.0
2017-Jun-21 07:00N 44°53' W 000°32'0 0.0
2017-Jun-21 06:18N 44°53' W 000°32'0 0.0
2017-Jun-21 06:00N 44°53' W 000°32'0 0.0
2017-Jun-21 05:30N 44°53' W 000°32'0 0.0
2017-Jun-21 03:34N 44°53' W 000°32'0 0.0
2017-Jun-21 03:29N 44°53' W 000°32'0 0.0
2017-Jun-21 02:59N 44°53' W 000°32'0 0.0
2017-Jun-21 02:30N 44°53' W 000°32'0 0.0
2017-Jun-21 02:00N 44°53' W 000°32'0 0.0
2017-Jun-21 01:30N 44°53' W 000°32'0 0.0
2017-Jun-21 01:00N 44°53' W 000°32'0 0.0
2017-Jun-21 00:27N 44°53' W 000°32'0 0.0
2017-Jun-20 23:58N 44°53' W 000°32'0 0.0
2017-Jun-20 23:30N 44°53' W 000°32'0 0.0
2017-Jun-20 23:00N 44°53' W 000°32'0 0.0
2017-Jun-20 22:28N 44°53' W 000°32'0 0.0
2017-Jun-20 21:59N 44°53' W 000°32'0 0.0
2017-Jun-20 20:24N 44°53' W 000°32'0 0.0
2017-Jun-20 09:20N 44°53' W 000°32'0 0.0
2017-Jun-20 08:59N 44°53' W 000°32'0 0.0
2017-Jun-20 08:30N 44°53' W 000°32'0 0.0
2017-Jun-20 08:00N 44°53' W 000°32'0 0.0
2017-Jun-20 07:30N 44°53' W 000°32'0 0.0
2017-Jun-20 06:59N 44°53' W 000°32'0 0.0
2017-Jun-20 06:30N 44°53' W 000°32'0 0.0
2017-Jun-20 05:55N 44°53' W 000°32'0 0.0
2017-Jun-20 05:30N 44°53' W 000°32'0 0.0
2017-Jun-20 05:00N 44°53' W 000°32'0 0.0
2017-Jun-20 04:30N 44°53' W 000°32'0 0.0
2017-Jun-20 03:56N 44°53' W 000°32'0 0.0
2017-Jun-20 03:30N 44°53' W 000°32'4 2.0
2017-Jun-20 01:36N 44°57' W 000°33'111.7
2017-Jun-20 01:30N 44°58' W 000°32'611.8
2017-Jun-20 01:00N 45°03' W 000°37'713.7
2017-Jun-20 00:30N 45°09' W 000°42'712.9
2017-Jun-19 23:59N 45°15' W 000°45'19 1.1
2017-Jun-19 06:11N 45°31' W 000°60'2 1.0
2017-Jun-19 04:17N 45°33' W 001°02'10 7.8
2017-Jun-19 02:59N 45°25' W 000°52'613.2
2017-Jun-19 02:31N 45°20' W 000°47'813.1
2017-Jun-19 01:56N 45°13' W 000°44'711.7
2017-Jun-19 01:22N 45°06' W 000°41'610.5
2017-Jun-19 00:48N 45°02' W 000°36'2 6.6
2017-Jun-19 00:27N 45°00' W 000°34'7 0.2
2017-Jun-17 05:28N 44°53' W 000°32'0 0.0
2017-Jun-16 23:26N 44°53' W 000°32'0 0.0
2017-Jun-16 23:00N 44°53' W 000°32'0 0.0
2017-Jun-16 22:30N 44°53' W 000°32'0 0.0
2017-Jun-16 22:00N 44°53' W 000°32'0 0.0
2017-Jun-16 21:30N 44°53' W 000°32'  
Track history (hours):
 
Tides and Currents Weather Stations Pressure Air Temp Water Temp Dewpoint Dewpoint Depression Visibility Wind Speed Wind Dir Waves Ship Positions

Quiberon

Operator: Brittany Ferries

Last reported at 2017-Jun-26 07:59 UTC. Time now 2017-Jun-27 22:37 UTC.
Position N 44°57' W 000°33'.

Length 25 m; draft 4.8 m.

Type: Tug. MMSI: 228296800.

Date/timePositionNaut miles runAvg speedWind from/ knotsBaromVisibWave heightAir tempDewpointWater temp
2017-Jun-26 07:59N 44°57' W 000°33'4 8.1
2017-Jun-26 07:30N 45°00' W 000°34'0 0.0
2017-Jun-26 07:00N 45°00' W 000°34'1 2.5
2017-Jun-26 06:30N 45°01' W 000°35'8 1.4
2017-Jun-26 00:34N 44°53' W 000°32'0 0.0
2017-Jun-26 00:22N 44°53' W 000°32'0 0.0
2017-Jun-25 23:55N 44°53' W 000°32'  
2017-Jun-22 08:24N 44°53' W 000°32'0 0.0
2017-Jun-22 08:00N 44°53' W 000°32'0 0.0
2017-Jun-22 07:30N 44°53' W 000°32'0 0.0
2017-Jun-22 06:59N 44°53' W 000°32'0 0.0
2017-Jun-22 06:29N 44°53' W 000°32'0 0.0
2017-Jun-22 06:00N 44°53' W 000°32'0 0.0
2017-Jun-22 05:24N 44°53' W 000°32'0 0.0
2017-Jun-22 05:00N 44°53' W 000°32'0 0.0
2017-Jun-22 04:30N 44°53' W 000°32'0 0.0
2017-Jun-22 04:00N 44°53' W 000°32'0 0.0
2017-Jun-22 03:30N 44°53' W 000°32'0 0.0
2017-Jun-22 03:00N 44°53' W 000°32'0 0.0
2017-Jun-22 02:30N 44°53' W 000°32'0 0.0
2017-Jun-22 02:01N 44°53' W 000°32'0 0.0
2017-Jun-22 01:30N 44°53' W 000°32'0 0.0
2017-Jun-22 00:59N 44°53' W 000°32'0 0.0
2017-Jun-22 00:30N 44°53' W 000°32'0 0.0
2017-Jun-22 00:00N 44°53' W 000°32'0 0.0
2017-Jun-21 23:30N 44°53' W 000°32'0 0.0
2017-Jun-21 23:00N 44°53' W 000°32'0 0.0
2017-Jun-21 22:30N 44°53' W 000°32'0 0.0
2017-Jun-21 22:00N 44°53' W 000°32'0 0.0
2017-Jun-21 21:30N 44°53' W 000°32'0 0.0
2017-Jun-21 07:35N 44°53' W 000°32'0 0.0
2017-Jun-21 07:29N 44°53' W 000°32'0 0.0
2017-Jun-21 07:00N 44°53' W 000°32'0 0.0
2017-Jun-21 06:18N 44°53' W 000°32'0 0.0
2017-Jun-21 06:00N 44°53' W 000°32'0 0.0
2017-Jun-21 05:30N 44°53' W 000°32'0 0.0
2017-Jun-21 03:34N 44°53' W 000°32'0 0.0
2017-Jun-21 03:29N 44°53' W 000°32'0 0.0
2017-Jun-21 02:59N 44°53' W 000°32'0 0.0
2017-Jun-21 02:30N 44°53' W 000°32'0 0.0
2017-Jun-21 02:00N 44°53' W 000°32'0 0.0
2017-Jun-21 01:30N 44°53' W 000°32'0 0.0
2017-Jun-21 01:00N 44°53' W 000°32'0 0.0
2017-Jun-21 00:27N 44°53' W 000°32'0 0.0
2017-Jun-20 23:58N 44°53' W 000°32'0 0.0
2017-Jun-20 23:30N 44°53' W 000°32'0 0.0
2017-Jun-20 23:00N 44°53' W 000°32'0 0.0
2017-Jun-20 22:28N 44°53' W 000°32'0 0.0
2017-Jun-20 21:59N 44°53' W 000°32'0 0.0
2017-Jun-20 20:24N 44°53' W 000°32'0 0.0
2017-Jun-20 09:20N 44°53' W 000°32'0 0.0
2017-Jun-20 08:59N 44°53' W 000°32'0 0.0
2017-Jun-20 08:30N 44°53' W 000°32'0 0.0
2017-Jun-20 08:00N 44°53' W 000°32'0 0.0
2017-Jun-20 07:30N 44°53' W 000°32'0 0.0
2017-Jun-20 06:59N 44°53' W 000°32'0 0.0
2017-Jun-20 06:30N 44°53' W 000°32'0 0.0
2017-Jun-20 05:55N 44°53' W 000°32'0 0.0
2017-Jun-20 05:30N 44°53' W 000°32'0 0.0
2017-Jun-20 05:00N 44°53' W 000°32'0 0.0
2017-Jun-20 04:30N 44°53' W 000°32'0 0.0
2017-Jun-20 03:56N 44°53' W 000°32'0 0.0
2017-Jun-20 03:30N 44°53' W 000°32'4 2.0
2017-Jun-20 01:36N 44°57' W 000°33'111.7
2017-Jun-20 01:30N 44°58' W 000°32'611.8
2017-Jun-20 01:00N 45°03' W 000°37'713.7
2017-Jun-20 00:30N 45°09' W 000°42'712.9
2017-Jun-19 23:59N 45°15' W 000°45'19 1.1
2017-Jun-19 06:11N 45°31' W 000°60'2 1.0
2017-Jun-19 04:17N 45°33' W 001°02'10 7.8
2017-Jun-19 02:59N 45°25' W 000°52'613.2
2017-Jun-19 02:31N 45°20' W 000°47'813.1
2017-Jun-19 01:56N 45°13' W 000°44'711.7
2017-Jun-19 01:22N 45°06' W 000°41'610.5
2017-Jun-19 00:48N 45°02' W 000°36'2 6.6
2017-Jun-19 00:27N 45°00' W 000°34'7 0.2
2017-Jun-17 05:28N 44°53' W 000°32'0 0.0
2017-Jun-16 23:26N 44°53' W 000°32'0 0.0
2017-Jun-16 23:00N 44°53' W 000°32'0 0.0
2017-Jun-16 22:30N 44°53' W 000°32'0 0.0
2017-Jun-16 22:00N 44°53' W 000°32'0 0.0
2017-Jun-16 21:30N 44°53' W 000°32'  

Dump ship's entire track history